sensor_id;sensor_type;location;lat;lon;timestamp;P1;durP1;ratioP1;P2;durP2;ratioP2
22955;SDS011;40888;48.148;11.526;2022-10-31T00:01:16;16.07;;;8.27;;
22955;SDS011;40888;48.148;11.526;2022-10-31T00:03:43;13.17;;;8.10;;
22955;SDS011;40888;48.148;11.526;2022-10-31T00:06:09;12.57;;;6.83;;
22955;SDS011;40888;48.148;11.526;2022-10-31T00:08:35;13.17;;;7.47;;
22955;SDS011;40888;48.148;11.526;2022-10-31T00:11:02;16.53;;;8.17;;
22955;SDS011;40888;48.148;11.526;2022-10-31T00:13:28;13.13;;;7.00;;
22955;SDS011;40888;48.148;11.526;2022-10-31T00:15:54;12.20;;;6.43;;
22955;SDS011;40888;48.148;11.526;2022-10-31T00:18:20;9.40;;;6.60;;
22955;SDS011;40888;48.148;11.526;2022-10-31T00:20:46;13.13;;;6.50;;
22955;SDS011;40888;48.148;11.526;2022-10-31T00:23:12;13.37;;;6.60;;
22955;SDS011;40888;48.148;11.526;2022-10-31T00:25:39;11.30;;;7.27;;
22955;SDS011;40888;48.148;11.526;2022-10-31T00:28:06;14.73;;;6.30;;
22955;SDS011;40888;48.148;11.526;2022-10-31T00:30:32;10.00;;;6.03;;
22955;SDS011;40888;48.148;11.526;2022-10-31T00:32:59;11.03;;;6.57;;
22955;SDS011;40888;48.148;11.526;2022-10-31T00:35:25;14.10;;;6.50;;
22955;SDS011;40888;48.148;11.526;2022-10-31T00:37:51;12.07;;;6.17;;
22955;SDS011;40888;48.148;11.526;2022-10-31T00:40:17;12.10;;;6.20;;
22955;SDS011;40888;48.148;11.526;2022-10-31T00:42:44;13.73;;;6.27;;
22955;SDS011;40888;48.148;11.526;2022-10-31T00:45:10;14.50;;;6.47;;
22955;SDS011;40888;48.148;11.526;2022-10-31T00:47:37;9.97;;;5.87;;
22955;SDS011;40888;48.148;11.526;2022-10-31T00:50:04;10.70;;;6.33;;
22955;SDS011;40888;48.148;11.526;2022-10-31T00:52:30;11.63;;;6.43;;
22955;SDS011;40888;48.148;11.526;2022-10-31T00:54:56;12.07;;;5.80;;
22955;SDS011;40888;48.148;11.526;2022-10-31T00:57:22;11.67;;;5.77;;
22955;SDS011;40888;48.148;11.526;2022-10-31T00:59:48;14.47;;;6.37;;
22955;SDS011;40888;48.148;11.526;2022-10-31T01:02:15;14.53;;;6.03;;
22955;SDS011;40888;48.148;11.526;2022-10-31T01:04:41;10.63;;;5.30;;
22955;SDS011;40888;48.148;11.526;2022-10-31T01:07:07;13.23;;;5.50;;
22955;SDS011;40888;48.148;11.526;2022-10-31T01:09:33;10.77;;;5.30;;
22955;SDS011;40888;48.148;11.526;2022-10-31T01:11:59;12.33;;;6.00;;
22955;SDS011;40888;48.148;11.526;2022-10-31T01:14:25;9.83;;;5.50;;
22955;SDS011;40888;48.148;11.526;2022-10-31T01:16:51;14.60;;;6.23;;
22955;SDS011;40888;48.148;11.526;2022-10-31T01:19:18;13.40;;;5.33;;
22955;SDS011;40888;48.148;11.526;2022-10-31T01:21:45;7.90;;;5.07;;
22955;SDS011;40888;48.148;11.526;2022-10-31T01:24:11;11.67;;;5.87;;
22955;SDS011;40888;48.148;11.526;2022-10-31T01:26:37;10.87;;;5.90;;
22955;SDS011;40888;48.148;11.526;2022-10-31T01:29:05;13.27;;;5.50;;
22955;SDS011;40888;48.148;11.526;2022-10-31T01:31:32;9.10;;;4.83;;
22955;SDS011;40888;48.148;11.526;2022-10-31T01:33:58;9.20;;;5.40;;
22955;SDS011;40888;48.148;11.526;2022-10-31T01:36:26;10.67;;;5.37;;
22955;SDS011;40888;48.148;11.526;2022-10-31T01:38:53;8.67;;;4.80;;
22955;SDS011;40888;48.148;11.526;2022-10-31T01:41:21;10.30;;;5.27;;
22955;SDS011;40888;48.148;11.526;2022-10-31T01:43:53;9.63;;;5.20;;
22955;SDS011;40888;48.148;11.526;2022-10-31T01:46:22;13.87;;;5.10;;
22955;SDS011;40888;48.148;11.526;2022-10-31T01:48:48;12.70;;;5.50;;
22955;SDS011;40888;48.148;11.526;2022-10-31T01:51:15;8.50;;;5.13;;
22955;SDS011;40888;48.148;11.526;2022-10-31T01:53:43;11.33;;;5.20;;
22955;SDS011;40888;48.148;11.526;2022-10-31T01:56:10;9.33;;;5.00;;
22955;SDS011;40888;48.148;11.526;2022-10-31T01:58:37;10.27;;;5.10;;
22955;SDS011;40888;48.148;11.526;2022-10-31T02:01:03;10.20;;;4.97;;
22955;SDS011;40888;48.148;11.526;2022-10-31T02:03:30;15.57;;;5.53;;
22955;SDS011;40888;48.148;11.526;2022-10-31T02:05:56;11.40;;;5.20;;
22955;SDS011;40888;48.148;11.526;2022-10-31T02:08:26;8.93;;;4.97;;
22955;SDS011;40888;48.148;11.526;2022-10-31T02:10:52;7.47;;;4.83;;
22955;SDS011;40888;48.148;11.526;2022-10-31T02:13:19;11.60;;;5.33;;
22955;SDS011;40888;48.148;11.526;2022-10-31T02:15:47;13.90;;;4.83;;
22955;SDS011;40888;48.148;11.526;2022-10-31T02:18:14;10.60;;;5.60;;
22955;SDS011;40888;48.148;11.526;2022-10-31T02:20:42;11.97;;;4.93;;
22955;SDS011;40888;48.148;11.526;2022-10-31T02:23:20;9.50;;;4.83;;
22955;SDS011;40888;48.148;11.526;2022-10-31T02:31:11;8.77;;;4.87;;
22955;SDS011;40888;48.148;11.526;2022-10-31T02:36:12;10.53;;;5.30;;
22955;SDS011;40888;48.148;11.526;2022-10-31T02:38:46;9.10;;;5.40;;
22955;SDS011;40888;48.148;11.526;2022-10-31T02:41:19;11.53;;;5.33;;
22955;SDS011;40888;48.148;11.526;2022-10-31T02:46:24;10.70;;;4.90;;
22955;SDS011;40888;48.148;11.526;2022-10-31T02:48:53;7.87;;;4.70;;
22955;SDS011;40888;48.148;11.526;2022-10-31T02:51:21;10.40;;;4.97;;
22955;SDS011;40888;48.148;11.526;2022-10-31T02:53:47;11.93;;;5.20;;
22955;SDS011;40888;48.148;11.526;2022-10-31T02:56:17;10.43;;;5.27;;
22955;SDS011;40888;48.148;11.526;2022-10-31T03:04:04;11.07;;;4.33;;
22955;SDS011;40888;48.148;11.526;2022-10-31T03:09:23;9.47;;;4.97;;
22955;SDS011;40888;48.148;11.526;2022-10-31T03:12:04;9.73;;;4.73;;
22955;SDS011;40888;48.148;11.526;2022-10-31T03:17:03;9.33;;;5.63;;
22955;SDS011;40888;48.148;11.526;2022-10-31T03:19:33;12.07;;;5.53;;
22955;SDS011;40888;48.148;11.526;2022-10-31T03:22:01;8.53;;;4.63;;
22955;SDS011;40888;48.148;11.526;2022-10-31T03:24:30;10.57;;;5.23;;
22955;SDS011;40888;48.148;11.526;2022-10-31T03:26:57;7.10;;;4.27;;
22955;SDS011;40888;48.148;11.526;2022-10-31T03:29:26;8.33;;;4.60;;
22955;SDS011;40888;48.148;11.526;2022-10-31T03:32:01;10.93;;;5.10;;
22955;SDS011;40888;48.148;11.526;2022-10-31T03:34:28;12.33;;;5.00;;
22955;SDS011;40888;48.148;11.526;2022-10-31T03:36:56;7.80;;;4.90;;
22955;SDS011;40888;48.148;11.526;2022-10-31T03:39:23;14.00;;;4.70;;
22955;SDS011;40888;48.148;11.526;2022-10-31T03:41:54;8.23;;;4.37;;
22955;SDS011;40888;48.148;11.526;2022-10-31T03:44:20;8.67;;;5.10;;
22955;SDS011;40888;48.148;11.526;2022-10-31T03:46:47;10.40;;;4.80;;
22955;SDS011;40888;48.148;11.526;2022-10-31T03:49:14;11.70;;;5.13;;
22955;SDS011;40888;48.148;11.526;2022-10-31T03:51:47;7.27;;;4.67;;
22955;SDS011;40888;48.148;11.526;2022-10-31T03:54:22;9.20;;;4.73;;
22955;SDS011;40888;48.148;11.526;2022-10-31T03:59:24;8.73;;;5.50;;
22955;SDS011;40888;48.148;11.526;2022-10-31T04:01:52;10.17;;;5.10;;
22955;SDS011;40888;48.148;11.526;2022-10-31T04:04:19;8.60;;;4.83;;
22955;SDS011;40888;48.148;11.526;2022-10-31T04:06:46;9.43;;;4.77;;
22955;SDS011;40888;48.148;11.526;2022-10-31T04:09:12;8.07;;;4.50;;
22955;SDS011;40888;48.148;11.526;2022-10-31T04:11:46;8.87;;;4.73;;
22955;SDS011;40888;48.148;11.526;2022-10-31T04:14:14;8.90;;;5.27;;
22955;SDS011;40888;48.148;11.526;2022-10-31T04:16:41;9.53;;;4.93;;
22955;SDS011;40888;48.148;11.526;2022-10-31T04:19:09;9.33;;;4.80;;
22955;SDS011;40888;48.148;11.526;2022-10-31T04:21:35;9.80;;;4.80;;
22955;SDS011;40888;48.148;11.526;2022-10-31T04:24:01;11.57;;;4.97;;
22955;SDS011;40888;48.148;11.526;2022-10-31T04:26:28;11.97;;;5.20;;
22955;SDS011;40888;48.148;11.526;2022-10-31T04:28:54;12.53;;;5.13;;
22955;SDS011;40888;48.148;11.526;2022-10-31T04:31:20;9.00;;;4.83;;
22955;SDS011;40888;48.148;11.526;2022-10-31T04:33:46;11.83;;;5.10;;
22955;SDS011;40888;48.148;11.526;2022-10-31T04:36:12;9.60;;;5.10;;
22955;SDS011;40888;48.148;11.526;2022-10-31T04:38:39;8.57;;;5.23;;
22955;SDS011;40888;48.148;11.526;2022-10-31T04:41:05;11.40;;;6.10;;
22955;SDS011;40888;48.148;11.526;2022-10-31T04:43:31;7.40;;;4.40;;
22955;SDS011;40888;48.148;11.526;2022-10-31T04:45:57;7.47;;;5.30;;
22955;SDS011;40888;48.148;11.526;2022-10-31T04:48:24;10.20;;;5.33;;
22955;SDS011;40888;48.148;11.526;2022-10-31T04:50:50;8.40;;;4.40;;
22955;SDS011;40888;48.148;11.526;2022-10-31T04:53:16;11.87;;;4.70;;
22955;SDS011;40888;48.148;11.526;2022-10-31T04:55:42;9.10;;;5.27;;
22955;SDS011;40888;48.148;11.526;2022-10-31T04:58:08;9.20;;;5.33;;
22955;SDS011;40888;48.148;11.526;2022-10-31T05:00:34;11.73;;;5.30;;
22955;SDS011;40888;48.148;11.526;2022-10-31T05:03:01;9.37;;;5.10;;
22955;SDS011;40888;48.148;11.526;2022-10-31T05:05:28;7.00;;;4.97;;
22955;SDS011;40888;48.148;11.526;2022-10-31T05:07:54;7.90;;;4.80;;
22955;SDS011;40888;48.148;11.526;2022-10-31T05:10:22;10.17;;;4.70;;
22955;SDS011;40888;48.148;11.526;2022-10-31T05:12:49;7.13;;;4.57;;
22955;SDS011;40888;48.148;11.526;2022-10-31T05:15:16;11.13;;;5.37;;
22955;SDS011;40888;48.148;11.526;2022-10-31T05:17:43;10.80;;;4.87;;
22955;SDS011;40888;48.148;11.526;2022-10-31T05:20:10;9.53;;;4.73;;
22955;SDS011;40888;48.148;11.526;2022-10-31T05:22:36;10.80;;;5.23;;
22955;SDS011;40888;48.148;11.526;2022-10-31T05:25:02;11.63;;;4.80;;
22955;SDS011;40888;48.148;11.526;2022-10-31T05:27:28;8.10;;;4.73;;
22955;SDS011;40888;48.148;11.526;2022-10-31T05:29:54;9.97;;;4.73;;
22955;SDS011;40888;48.148;11.526;2022-10-31T05:32:20;9.60;;;6.50;;
22955;SDS011;40888;48.148;11.526;2022-10-31T05:34:47;11.00;;;4.87;;
22955;SDS011;40888;48.148;11.526;2022-10-31T05:37:13;10.53;;;4.83;;
22955;SDS011;40888;48.148;11.526;2022-10-31T05:39:39;9.53;;;4.83;;
22955;SDS011;40888;48.148;11.526;2022-10-31T05:42:05;8.70;;;4.73;;
22955;SDS011;40888;48.148;11.526;2022-10-31T05:44:31;8.97;;;4.47;;
22955;SDS011;40888;48.148;11.526;2022-10-31T05:46:57;7.00;;;3.90;;
22955;SDS011;40888;48.148;11.526;2022-10-31T05:49:23;8.73;;;5.33;;
22955;SDS011;40888;48.148;11.526;2022-10-31T05:51:50;9.23;;;4.77;;
22955;SDS011;40888;48.148;11.526;2022-10-31T05:54:16;12.57;;;5.10;;
22955;SDS011;40888;48.148;11.526;2022-10-31T05:56:43;7.10;;;4.70;;
22955;SDS011;40888;48.148;11.526;2022-10-31T05:59:09;11.27;;;4.97;;
22955;SDS011;40888;48.148;11.526;2022-10-31T06:01:35;7.40;;;4.77;;
22955;SDS011;40888;48.148;11.526;2022-10-31T06:04:01;5.97;;;4.20;;
22955;SDS011;40888;48.148;11.526;2022-10-31T06:06:28;8.23;;;4.43;;
22955;SDS011;40888;48.148;11.526;2022-10-31T06:08:54;7.47;;;4.60;;
22955;SDS011;40888;48.148;11.526;2022-10-31T06:11:20;8.10;;;4.30;;
22955;SDS011;40888;48.148;11.526;2022-10-31T06:13:46;12.73;;;4.80;;
22955;SDS011;40888;48.148;11.526;2022-10-31T06:16:12;14.13;;;5.40;;
22955;SDS011;40888;48.148;11.526;2022-10-31T06:18:38;11.30;;;4.93;;
22955;SDS011;40888;48.148;11.526;2022-10-31T06:21:04;7.77;;;4.80;;
22955;SDS011;40888;48.148;11.526;2022-10-31T06:23:31;10.90;;;4.70;;
22955;SDS011;40888;48.148;11.526;2022-10-31T06:26:00;9.50;;;4.87;;
22955;SDS011;40888;48.148;11.526;2022-10-31T06:28:29;10.40;;;4.97;;
22955;SDS011;40888;48.148;11.526;2022-10-31T06:30:55;13.80;;;5.63;;
22955;SDS011;40888;48.148;11.526;2022-10-31T06:33:21;8.83;;;5.33;;
22955;SDS011;40888;48.148;11.526;2022-10-31T06:35:47;9.80;;;6.13;;
22955;SDS011;40888;48.148;11.526;2022-10-31T06:38:14;10.47;;;6.13;;
22955;SDS011;40888;48.148;11.526;2022-10-31T06:40:40;10.13;;;6.20;;
22955;SDS011;40888;48.148;11.526;2022-10-31T06:43:06;12.47;;;5.60;;
22955;SDS011;40888;48.148;11.526;2022-10-31T06:45:32;10.50;;;5.47;;
22955;SDS011;40888;48.148;11.526;2022-10-31T06:47:59;12.67;;;6.17;;
22955;SDS011;40888;48.148;11.526;2022-10-31T06:50:25;13.80;;;6.57;;
22955;SDS011;40888;48.148;11.526;2022-10-31T06:52:52;13.43;;;6.03;;
22955;SDS011;40888;48.148;11.526;2022-10-31T06:55:18;10.20;;;6.00;;
22955;SDS011;40888;48.148;11.526;2022-10-31T06:57:57;12.10;;;5.87;;
22955;SDS011;40888;48.148;11.526;2022-10-31T07:00:24;12.30;;;5.77;;
22955;SDS011;40888;48.148;11.526;2022-10-31T07:02:54;11.17;;;6.27;;
22955;SDS011;40888;48.148;11.526;2022-10-31T07:05:20;10.97;;;6.30;;
22955;SDS011;40888;48.148;11.526;2022-10-31T07:07:46;11.10;;;5.60;;
22955;SDS011;40888;48.148;11.526;2022-10-31T07:10:13;13.07;;;6.50;;
22955;SDS011;40888;48.148;11.526;2022-10-31T07:12:39;11.17;;;6.57;;
22955;SDS011;40888;48.148;11.526;2022-10-31T07:15:06;9.40;;;5.67;;
22955;SDS011;40888;48.148;11.526;2022-10-31T07:17:32;11.97;;;5.97;;
22955;SDS011;40888;48.148;11.526;2022-10-31T07:19:58;12.80;;;6.33;;
22955;SDS011;40888;48.148;11.526;2022-10-31T07:22:24;10.03;;;5.47;;
22955;SDS011;40888;48.148;11.526;2022-10-31T07:24:51;11.37;;;5.60;;
22955;SDS011;40888;48.148;11.526;2022-10-31T07:27:17;9.57;;;5.07;;
22955;SDS011;40888;48.148;11.526;2022-10-31T07:29:43;14.17;;;4.93;;
22955;SDS011;40888;48.148;11.526;2022-10-31T07:32:09;8.90;;;4.77;;
22955;SDS011;40888;48.148;11.526;2022-10-31T07:34:35;8.03;;;5.00;;
22955;SDS011;40888;48.148;11.526;2022-10-31T07:37:01;14.75;;;5.18;;
22955;SDS011;40888;48.148;11.526;2022-10-31T07:39:27;10.45;;;4.82;;
22955;SDS011;40888;48.148;11.526;2022-10-31T07:41:54;11.30;;;4.80;;
22955;SDS011;40888;48.148;11.526;2022-10-31T07:44:20;9.23;;;4.80;;
22955;SDS011;40888;48.148;11.526;2022-10-31T07:46:46;13.80;;;5.15;;
22955;SDS011;40888;48.148;11.526;2022-10-31T07:49:12;10.60;;;4.78;;
22955;SDS011;40888;48.148;11.526;2022-10-31T07:51:38;9.18;;;4.80;;
22955;SDS011;40888;48.148;11.526;2022-10-31T07:54:04;9.95;;;5.10;;
22955;SDS011;40888;48.148;11.526;2022-10-31T07:56:31;9.00;;;4.80;;
22955;SDS011;40888;48.148;11.526;2022-10-31T07:58:57;8.98;;;5.05;;
22955;SDS011;40888;48.148;11.526;2022-10-31T08:01:23;13.68;;;5.25;;
22955;SDS011;40888;48.148;11.526;2022-10-31T08:03:49;13.60;;;5.45;;
22955;SDS011;40888;48.148;11.526;2022-10-31T08:06:15;8.65;;;5.22;;
22955;SDS011;40888;48.148;11.526;2022-10-31T08:08:41;11.90;;;6.22;;
22955;SDS011;40888;48.148;11.526;2022-10-31T08:11:08;15.05;;;5.30;;
22955;SDS011;40888;48.148;11.526;2022-10-31T08:13:34;9.57;;;5.25;;
22955;SDS011;40888;48.148;11.526;2022-10-31T08:16:00;12.68;;;5.43;;
22955;SDS011;40888;48.148;11.526;2022-10-31T08:18:29;13.15;;;5.13;;
22955;SDS011;40888;48.148;11.526;2022-10-31T08:20:55;10.30;;;5.55;;
22955;SDS011;40888;48.148;11.526;2022-10-31T08:23:21;15.27;;;6.13;;
22955;SDS011;40888;48.148;11.526;2022-10-31T08:25:47;10.38;;;5.45;;
22955;SDS011;40888;48.148;11.526;2022-10-31T08:28:14;10.75;;;5.03;;
22955;SDS011;40888;48.148;11.526;2022-10-31T08:30:40;10.32;;;5.55;;
22955;SDS011;40888;48.148;11.526;2022-10-31T08:33:15;12.00;;;5.45;;
22955;SDS011;40888;48.148;11.526;2022-10-31T08:35:42;10.60;;;5.80;;
22955;SDS011;40888;48.148;11.526;2022-10-31T08:38:09;14.60;;;5.50;;
22955;SDS011;40888;48.148;11.526;2022-10-31T08:40:35;12.05;;;5.18;;
22955;SDS011;40888;48.148;11.526;2022-10-31T08:43:02;11.43;;;5.57;;
22955;SDS011;40888;48.148;11.526;2022-10-31T08:45:29;11.70;;;5.45;;
22955;SDS011;40888;48.148;11.526;2022-10-31T08:47:56;11.45;;;5.18;;
22955;SDS011;40888;48.148;11.526;2022-10-31T08:50:23;12.25;;;5.13;;
22955;SDS011;40888;48.148;11.526;2022-10-31T08:52:49;12.52;;;5.10;;
22955;SDS011;40888;48.148;11.526;2022-10-31T08:55:15;12.30;;;5.22;;
22955;SDS011;40888;48.148;11.526;2022-10-31T08:57:41;10.75;;;5.97;;
22955;SDS011;40888;48.148;11.526;2022-10-31T09:00:08;11.93;;;5.35;;
22955;SDS011;40888;48.148;11.526;2022-10-31T09:02:34;13.10;;;5.70;;
22955;SDS011;40888;48.148;11.526;2022-10-31T09:05:02;9.35;;;5.85;;
22955;SDS011;40888;48.148;11.526;2022-10-31T09:07:28;13.13;;;5.97;;
22955;SDS011;40888;48.148;11.526;2022-10-31T09:09:54;11.57;;;6.07;;
22955;SDS011;40888;48.148;11.526;2022-10-31T09:12:21;10.60;;;6.07;;
22955;SDS011;40888;48.148;11.526;2022-10-31T09:14:49;10.48;;;6.00;;
22955;SDS011;40888;48.148;11.526;2022-10-31T09:17:15;14.40;;;6.55;;
22955;SDS011;40888;48.148;11.526;2022-10-31T09:19:41;10.52;;;6.38;;
22955;SDS011;40888;48.148;11.526;2022-10-31T09:22:07;14.60;;;6.38;;
22955;SDS011;40888;48.148;11.526;2022-10-31T09:24:33;11.65;;;5.95;;
22955;SDS011;40888;48.148;11.526;2022-10-31T09:26:59;13.50;;;6.18;;
22955;SDS011;40888;48.148;11.526;2022-10-31T09:29:25;12.90;;;6.10;;
22955;SDS011;40888;48.148;11.526;2022-10-31T09:31:52;11.07;;;6.13;;
22955;SDS011;40888;48.148;11.526;2022-10-31T09:34:18;14.85;;;5.72;;
22955;SDS011;40888;48.148;11.526;2022-10-31T09:36:44;12.80;;;5.47;;
22955;SDS011;40888;48.148;11.526;2022-10-31T09:39:11;13.20;;;5.85;;
22955;SDS011;40888;48.148;11.526;2022-10-31T09:51:38;12.02;;;5.35;;
22955;SDS011;40888;48.148;11.526;2022-10-31T09:56:40;12.65;;;4.55;;
22955;SDS011;40888;48.148;11.526;2022-10-31T09:59:11;10.52;;;4.88;;
22955;SDS011;40888;48.148;11.526;2022-10-31T10:01:44;12.75;;;5.00;;
22955;SDS011;40888;48.148;11.526;2022-10-31T10:06:57;9.98;;;4.70;;
22955;SDS011;40888;48.148;11.526;2022-10-31T10:09:25;13.52;;;4.97;;
22955;SDS011;40888;48.148;11.526;2022-10-31T10:12:01;12.20;;;4.65;;
22955;SDS011;40888;48.148;11.526;2022-10-31T10:17:07;10.77;;;4.43;;
22955;SDS011;40888;48.148;11.526;2022-10-31T10:27:17;9.38;;;4.00;;
22955;SDS011;40888;48.148;11.526;2022-10-31T10:30:12;8.40;;;3.83;;
22955;SDS011;40888;48.148;11.526;2022-10-31T10:32:46;6.35;;;3.25;;
22955;SDS011;40888;48.148;11.526;2022-10-31T10:35:19;9.82;;;2.92;;
22955;SDS011;40888;48.148;11.526;2022-10-31T10:37:46;11.98;;;3.70;;
22955;SDS011;40888;48.148;11.526;2022-10-31T10:40:18;9.10;;;3.85;;
22955;SDS011;40888;48.148;11.526;2022-10-31T10:42:50;7.90;;;3.40;;
22955;SDS011;40888;48.148;11.526;2022-10-31T10:45:40;10.38;;;3.60;;
22955;SDS011;40888;48.148;11.526;2022-10-31T10:50:51;10.38;;;3.55;;
22955;SDS011;40888;48.148;11.526;2022-10-31T10:55:51;7.30;;;3.15;;
22955;SDS011;40888;48.148;11.526;2022-10-31T10:58:19;8.68;;;3.20;;
22955;SDS011;40888;48.148;11.526;2022-10-31T11:00:45;9.88;;;3.20;;
22955;SDS011;40888;48.148;11.526;2022-10-31T11:03:13;6.68;;;3.00;;
22955;SDS011;40888;48.148;11.526;2022-10-31T11:08:25;10.13;;;3.05;;
22955;SDS011;40888;48.148;11.526;2022-10-31T11:13:26;10.20;;;3.42;;
22955;SDS011;40888;48.148;11.526;2022-10-31T11:15:55;9.48;;;2.88;;
22955;SDS011;40888;48.148;11.526;2022-10-31T11:18:23;7.25;;;2.85;;
22955;SDS011;40888;48.148;11.526;2022-10-31T11:20:57;6.50;;;3.03;;
22955;SDS011;40888;48.148;11.526;2022-10-31T11:23:24;9.23;;;2.47;;
22955;SDS011;40888;48.148;11.526;2022-10-31T11:25:52;5.93;;;2.90;;
22955;SDS011;40888;48.148;11.526;2022-10-31T11:28:20;6.50;;;3.28;;
22955;SDS011;40888;48.148;11.526;2022-10-31T11:30:56;7.93;;;3.00;;
22955;SDS011;40888;48.148;11.526;2022-10-31T11:33:30;6.55;;;3.00;;
22955;SDS011;40888;48.148;11.526;2022-10-31T11:35:57;9.25;;;3.40;;
22955;SDS011;40888;48.148;11.526;2022-10-31T11:38:24;10.65;;;3.22;;
22955;SDS011;40888;48.148;11.526;2022-10-31T11:40:53;7.43;;;2.78;;
22955;SDS011;40888;48.148;11.526;2022-10-31T11:43:20;9.10;;;2.75;;
22955;SDS011;40888;48.148;11.526;2022-10-31T11:45:46;6.90;;;3.33;;
22955;SDS011;40888;48.148;11.526;2022-10-31T11:48:17;6.60;;;3.00;;
22955;SDS011;40888;48.148;11.526;2022-10-31T11:50:47;6.30;;;2.90;;
22955;SDS011;40888;48.148;11.526;2022-10-31T11:53:15;7.10;;;3.47;;
22955;SDS011;40888;48.148;11.526;2022-10-31T11:55:42;7.90;;;3.13;;
22955;SDS011;40888;48.148;11.526;2022-10-31T11:58:21;6.97;;;3.00;;
22955;SDS011;40888;48.148;11.526;2022-10-31T12:00:49;15.05;;;3.75;;
22955;SDS011;40888;48.148;11.526;2022-10-31T12:06:02;9.48;;;3.70;;
22955;SDS011;40888;48.148;11.526;2022-10-31T12:08:30;8.05;;;3.15;;
22955;SDS011;40888;48.148;11.526;2022-10-31T12:15:58;5.13;;;3.20;;
22955;SDS011;40888;48.148;11.526;2022-10-31T12:18:33;8.27;;;3.05;;
22955;SDS011;40888;48.148;11.526;2022-10-31T12:28:48;7.97;;;3.40;;
22955;SDS011;40888;48.148;11.526;2022-10-31T12:33:53;6.13;;;3.15;;
22955;SDS011;40888;48.148;11.526;2022-10-31T12:36:33;8.38;;;3.42;;
22955;SDS011;40888;48.148;11.526;2022-10-31T12:41:52;10.38;;;3.83;;
22955;SDS011;40888;48.148;11.526;2022-10-31T12:51:59;7.85;;;3.47;;
22955;SDS011;40888;48.148;11.526;2022-10-31T12:57:13;11.63;;;4.03;;
22955;SDS011;40888;48.148;11.526;2022-10-31T12:59:43;9.50;;;3.92;;
22955;SDS011;40888;48.148;11.526;2022-10-31T13:04:55;13.02;;;3.78;;
22955;SDS011;40888;48.148;11.526;2022-10-31T13:07:39;8.48;;;3.90;;
22955;SDS011;40888;48.148;11.526;2022-10-31T13:12:38;9.70;;;3.97;;
22955;SDS011;40888;48.148;11.526;2022-10-31T13:17:53;12.07;;;4.15;;
22955;SDS011;40888;48.148;11.526;2022-10-31T13:22:48;9.02;;;3.70;;
22955;SDS011;40888;48.148;11.526;2022-10-31T13:25:16;6.22;;;3.13;;
22955;SDS011;40888;48.148;11.526;2022-10-31T13:27:48;8.00;;;3.70;;
22955;SDS011;40888;48.148;11.526;2022-10-31T13:30:18;9.00;;;3.72;;
22955;SDS011;40888;48.148;11.526;2022-10-31T13:38:08;9.82;;;3.42;;
22955;SDS011;40888;48.148;11.526;2022-10-31T13:45:51;11.25;;;3.47;;
22955;SDS011;40888;48.148;11.526;2022-10-31T13:48:19;5.90;;;3.40;;
22955;SDS011;40888;48.148;11.526;2022-10-31T13:50:56;10.98;;;4.07;;
22955;SDS011;40888;48.148;11.526;2022-10-31T13:53:22;9.20;;;4.18;;
22955;SDS011;40888;48.148;11.526;2022-10-31T14:01:20;9.80;;;3.65;;
22955;SDS011;40888;48.148;11.526;2022-10-31T14:03:55;10.85;;;4.28;;
22955;SDS011;40888;48.148;11.526;2022-10-31T14:06:22;9.23;;;4.07;;
22955;SDS011;40888;48.148;11.526;2022-10-31T14:08:50;9.68;;;3.58;;
22955;SDS011;40888;48.148;11.526;2022-10-31T14:11:21;6.03;;;3.78;;
22955;SDS011;40888;48.148;11.526;2022-10-31T14:13:48;10.13;;;3.78;;
22955;SDS011;40888;48.148;11.526;2022-10-31T14:16:23;6.97;;;4.13;;
22955;SDS011;40888;48.148;11.526;2022-10-31T14:18:51;9.95;;;3.90;;
22955;SDS011;40888;48.148;11.526;2022-10-31T14:23:49;7.07;;;3.60;;
22955;SDS011;40888;48.148;11.526;2022-10-31T14:28:51;9.40;;;3.60;;
22955;SDS011;40888;48.148;11.526;2022-10-31T14:31:37;10.20;;;3.47;;
22955;SDS011;40888;48.148;11.526;2022-10-31T14:44:39;10.07;;;4.20;;
22955;SDS011;40888;48.148;11.526;2022-10-31T14:47:14;13.10;;;4.10;;
22955;SDS011;40888;48.148;11.526;2022-10-31T14:52:12;11.10;;;3.72;;
22955;SDS011;40888;48.148;11.526;2022-10-31T14:54:41;9.52;;;4.28;;
22955;SDS011;40888;48.148;11.526;2022-10-31T14:57:21;8.43;;;3.72;;
22955;SDS011;40888;48.148;11.526;2022-10-31T14:59:49;8.90;;;4.57;;
22955;SDS011;40888;48.148;11.526;2022-10-31T15:02:24;14.73;;;4.55;;
22955;SDS011;40888;48.148;11.526;2022-10-31T15:04:51;9.40;;;3.92;;
22955;SDS011;40888;48.148;11.526;2022-10-31T15:07:19;6.13;;;4.07;;
22955;SDS011;40888;48.148;11.526;2022-10-31T15:09:55;8.38;;;4.00;;
22955;SDS011;40888;48.148;11.526;2022-10-31T15:14:47;7.20;;;4.30;;
22955;SDS011;40888;48.148;11.526;2022-10-31T15:17:13;10.45;;;5.20;;
22955;SDS011;40888;48.148;11.526;2022-10-31T15:19:40;9.23;;;4.38;;
22955;SDS011;40888;48.148;11.526;2022-10-31T15:22:07;9.20;;;4.78;;
22955;SDS011;40888;48.148;11.526;2022-10-31T15:24:35;10.38;;;4.80;;
22955;SDS011;40888;48.148;11.526;2022-10-31T15:27:02;10.55;;;5.22;;
22955;SDS011;40888;48.148;11.526;2022-10-31T15:29:28;10.88;;;5.25;;
22955;SDS011;40888;48.148;11.526;2022-10-31T15:31:59;14.82;;;5.15;;
22955;SDS011;40888;48.148;11.526;2022-10-31T15:36:57;12.48;;;5.35;;
22955;SDS011;40888;48.148;11.526;2022-10-31T15:39:23;9.50;;;5.40;;
22955;SDS011;40888;48.148;11.526;2022-10-31T15:41:51;11.43;;;6.13;;
22955;SDS011;40888;48.148;11.526;2022-10-31T15:44:19;11.23;;;6.18;;
22955;SDS011;40888;48.148;11.526;2022-10-31T15:46:56;13.32;;;6.63;;
22955;SDS011;40888;48.148;11.526;2022-10-31T15:49:28;10.52;;;6.30;;
22955;SDS011;40888;48.148;11.526;2022-10-31T15:51:55;12.77;;;7.07;;
22955;SDS011;40888;48.148;11.526;2022-10-31T15:54:21;10.68;;;6.97;;
22955;SDS011;40888;48.148;11.526;2022-10-31T15:56:47;16.15;;;6.93;;
22955;SDS011;40888;48.148;11.526;2022-10-31T15:59:18;15.95;;;7.65;;
22955;SDS011;40888;48.148;11.526;2022-10-31T16:01:55;12.00;;;7.40;;
22955;SDS011;40888;48.148;11.526;2022-10-31T16:04:23;12.57;;;6.85;;
22955;SDS011;40888;48.148;11.526;2022-10-31T16:07:35;12.85;;;7.40;;
22955;SDS011;40888;48.148;11.526;2022-10-31T16:09:36;12.60;;;8.38;;
22955;SDS011;40888;48.148;11.526;2022-10-31T16:12:02;10.98;;;8.32;;
22955;SDS011;40888;48.148;11.526;2022-10-31T16:14:30;16.40;;;7.97;;
22955;SDS011;40888;48.148;11.526;2022-10-31T16:16:57;17.92;;;8.30;;
22955;SDS011;40888;48.148;11.526;2022-10-31T16:19:25;15.82;;;9.88;;
22955;SDS011;40888;48.148;11.526;2022-10-31T16:21:53;16.00;;;8.85;;
22955;SDS011;40888;48.148;11.526;2022-10-31T16:24:25;12.63;;;9.25;;
22955;SDS011;40888;48.148;11.526;2022-10-31T16:26:59;18.90;;;8.70;;
22955;SDS011;40888;48.148;11.526;2022-10-31T16:29:45;14.75;;;9.80;;
22955;SDS011;40888;48.148;11.526;2022-10-31T16:32:29;14.18;;;9.02;;
22955;SDS011;40888;48.148;11.526;2022-10-31T16:35:16;16.73;;;8.55;;
22955;SDS011;40888;48.148;11.526;2022-10-31T16:37:43;15.95;;;9.30;;
22955;SDS011;40888;48.148;11.526;2022-10-31T16:40:10;15.65;;;10.15;;
22955;SDS011;40888;48.148;11.526;2022-10-31T16:42:38;13.55;;;9.05;;
22955;SDS011;40888;48.148;11.526;2022-10-31T16:45:07;12.80;;;8.55;;
22955;SDS011;40888;48.148;11.526;2022-10-31T16:47:33;16.73;;;9.75;;
22955;SDS011;40888;48.148;11.526;2022-10-31T16:50:00;16.10;;;9.48;;
22955;SDS011;40888;48.148;11.526;2022-10-31T16:52:26;25.70;;;15.73;;